| time (UTC) | temp F | wind direction | speed MPH | gust MPH | rain 1hr in | rain 24hr in | rain mn in | humidity % | barometer mb |
| 20260906224536 | 69 | 32 | 4.0 | 9.0 | 0.00 | 0.00 | 0.00 | 67 | 1018.4 |
| 20260906223036 | 69 | 29 | 5.0 | 8.0 | 0.00 | 0.00 | 0.00 | 67 | 1018.3 |
| 20260906221542 | 69 | 26 | 7.0 | 10.0 | 0.00 | 0.00 | 0.00 | 66 | 1018.4 |
| 20260906220110 | 69 | 29 | 5.0 | 11.0 | 0.00 | 0.00 | 0.00 | 67 | 1018.5 |
| 20260906214537 | 69 | 27 | 5.0 | 10.0 | 0.00 | 0.00 | 0.00 | 68 | 1018.4 |
| 20260906213033 | 69 | 27 | 5.0 | 8.0 | 0.00 | 0.00 | 0.00 | 67 | 1018.5 |
| 20260906211536 | 69 | 32 | 6.0 | 12.0 | 0.00 | 0.00 | 0.00 | 67 | 1018.6 |
| 20260906210049 | 69 | 28 | 7.0 | 13.0 | 0.00 | 0.00 | 0.00 | 67 | 1018.6 |
| 20260906204527 | 69 | 32 | 6.0 | 11.0 | 0.00 | 0.00 | 0.00 | 68 | 1018.6 |
| 20260906203033 | 68 | 28 | 7.0 | 12.0 | 0.00 | 0.00 | 0.00 | 67 | 1018.5 |
| 20260906201526 | 68 | 30 | 7.0 | 11.0 | 0.00 | 0.00 | 0.00 | 69 | 1018.4 |
| 20260906200037 | 68 | 26 | 8.0 | 11.0 | 0.00 | 0.00 | 0.00 | 68 | 1018.6 |
| 20260906194523 | 68 | 26 | 7.0 | 9.0 | 0.00 | 0.00 | 0.00 | 68 | 1018.6 |
| 20260906193023 | 68 | 34 | 6.0 | 10.0 | 0.00 | 0.00 | 0.00 | 70 | 1018.6 |
| 20260906191522 | 68 | 30 | 7.0 | 12.0 | 0.00 | 0.00 | 0.00 | 69 | 1018.9 |
| 20260906190021 | 68 | 25 | 7.0 | 12.0 | 0.00 | 0.00 | 0.00 | 71 | 1018.8 |
| 20260906184519 | 68 | 35 | 7.0 | 12.0 | 0.00 | 0.00 | 0.00 | 71 | 1018.7 |
| 20260906183032 | 68 | 29 | 6.0 | 10.0 | 0.00 | 0.00 | 0.00 | 70 | 1018.9 |
| 20260906181523 | 68 | 26 | 7.0 | 11.0 | 0.00 | 0.00 | 0.00 | 70 | 1019.0 |
| 20260906180033 | 68 | 26 | 7.0 | 11.0 | 0.00 | 0.00 | 0.00 | 70 | 1019.2 |
| 20260906174529 | 68 | 29 | 5.0 | 10.0 | 0.00 | 0.00 | 0.00 | 71 | 1019.3 |
| 20260906173020 | 68 | 26 | 6.0 | 9.0 | 0.00 | 0.00 | 0.00 | 70 | 1019.2 |
| 20260906171515 | 68 | 34 | 5.0 | 9.0 | 0.00 | 0.00 | 0.00 | 70 | 1019.2 |
| 20260906170015 | 68 | 29 | 4.0 | 9.0 | 0.00 | 0.00 | 0.00 | 70 | 1019.2 |
| 20260906164528 | 68 | 33 | 5.0 | 9.0 | 0.00 | 0.00 | 0.00 | 71 | 1019.2 |
| 20260906163024 | 68 | 31 | 5.0 | 9.0 | 0.00 | 0.00 | 0.00 | 70 | 1019.2 |
| 20260906161513 | 68 | 27 | 5.0 | 8.0 | 0.00 | 0.00 | 0.00 | 70 | 1019.3 |
| 20260906160011 | 68 | 31 | 6.0 | 8.0 | 0.00 | 0.00 | 0.00 | 70 | 1019.3 |
| 20260906154514 | 68 | 30 | 5.0 | 8.0 | 0.00 | 0.00 | 0.00 | 70 | 1019.2 |
| 20260906153009 | 68 | 30 | 5.0 | 9.0 | 0.00 | 0.00 | 0.00 | 69 | 1019.1 |
| 20260906151509 | 68 | 28 | 6.0 | 11.0 | 0.00 | 0.00 | 0.00 | 69 | 1018.9 |
| 20260906150020 | 67 | 32 | 5.0 | 9.0 | 0.00 | 0.00 | 0.00 | 69 | 1018.8 |
| 20260906144507 | 67 | 32 | 5.0 | 10.0 | 0.00 | 0.00 | 0.00 | 71 | 1018.8 |
| 20260906143013 | 67 | 31 | 5.0 | 9.0 | 0.00 | 0.00 | 0.00 | 70 | 1018.8 |
| 20260906141505 | 67 | 29 | 5.0 | 9.0 | 0.00 | 0.00 | 0.00 | 71 | 1018.6 |
| 20260906140003 | 67 | 30 | 5.0 | 10.0 | 0.00 | 0.00 | 0.00 | 71 | 1018.6 |
| 20260906134503 | 68 | 26 | 6.0 | 9.0 | 0.00 | 0.00 | 0.00 | 71 | 1018.5 |
| 20260906133002 | 68 | 33 | 5.0 | 9.0 | 0.00 | 0.00 | 0.00 | 70 | 1018.5 |
| 20260906131504 | 68 | 37 | 6.0 | 10.0 | 0.00 | 0.00 | 0.00 | 69 | 1018.4 |
| 20260906130100 | 68 | 34 | 5.0 | 8.0 | 0.00 | 0.00 | 0.00 | 70 | 1018.4 |
| 20260906124557 | 68 | 28 | 5.0 | 8.0 | 0.00 | 0.00 | 0.00 | 70 | 1018.2 |
| 20260906123058 | 68 | 27 | 5.0 | 8.0 | 0.00 | 0.00 | 0.00 | 70 | 1018.2 |
| 20260906121556 | 69 | 37 | 1.0 | 4.0 | 0.00 | 0.00 | 0.00 | 69 | 1018.2 |
| 20260906120056 | 68 | 44 | 0.0 | 0.0 | 0.00 | 0.00 | 0.00 | 70 | 1017.9 |
| 20260906114552 | 67 | 51 | 0.0 | 3.0 | 0.00 | 0.00 | 0.00 | 72 | 1017.7 |
| 20260906113058 | 67 | 32 | 3.0 | 6.0 | 0.00 | 0.00 | 0.00 | 73 | 1017.5 |
| 20260906111549 | 66 | 29 | 0.0 | 3.0 | 0.00 | 0.00 | 0.00 | 72 | 1017.4 |
| 20260906110046 | 66 | 44 | 1.0 | 3.0 | 0.00 | 0.00 | 0.00 | 71 | 1017.4 |
| 20260906104553 | 67 | 53 | 1.0 | 2.0 | 0.00 | 0.00 | 0.00 | 71 | 1017.3 |
| 20260906103042 | 67 | 46 | 1.0 | 3.0 | 0.00 | 0.00 | 0.00 | 70 | 1017.1 |
| 20260906101539 | 67 | 34 | 2.0 | 5.0 | 0.00 | 0.00 | 0.00 | 70 | 1017.0 |
| 20260906100043 | 68 | 32 | 4.0 | 9.0 | 0.00 | 0.00 | 0.00 | 70 | 1016.9 |
| 20260906094602 | 68 | 37 | 4.0 | 11.0 | 0.00 | 0.00 | 0.00 | 70 | 1017.0 |
| 20260906093038 | 68 | 27 | 5.0 | 8.0 | 0.00 | 0.00 | 0.00 | 70 | 1016.9 |
| 20260906091541 | 68 | 32 | 5.0 | 10.0 | 0.00 | 0.00 | 0.00 | 69 | 1016.7 |
| 20260906090033 | 68 | 32 | 5.0 | 10.0 | 0.00 | 0.00 | 0.00 | 69 | 1016.7 |
| 20260906084537 | 68 | 31 | 5.0 | 10.0 | 0.00 | 0.00 | 0.00 | 69 | 1016.6 |
| 20260906083035 | 68 | 32 | 6.0 | 10.0 | 0.00 | 0.00 | 0.00 | 67 | 1016.6 |
| 20260906081543 | 68 | 28 | 6.0 | 9.0 | 0.00 | 0.00 | 0.00 | 67 | 1016.5 |
| 20260906080030 | 68 | 28 | 6.0 | 9.0 | 0.00 | 0.00 | 0.00 | 66 | 1016.5 |
| 20260906074532 | 68 | 28 | 6.0 | 8.0 | 0.00 | 0.00 | 0.00 | 67 | 1016.5 |
| 20260906073028 | 68 | 33 | 6.0 | 10.0 | 0.00 | 0.00 | 0.00 | 68 | 1016.6 |
| 20260906071528 | 68 | 32 | 5.0 | 9.0 | 0.00 | 0.00 | 0.00 | 68 | 1016.4 |
| 20260906070027 | 68 | 30 | 6.0 | 11.0 | 0.00 | 0.00 | 0.00 | 66 | 1016.3 |
| 20260906064526 | 68 | 33 | 6.0 | 10.0 | 0.00 | 0.00 | 0.00 | 66 | 1016.5 |
| 20260906063031 | 68 | 27 | 7.0 | 10.0 | 0.00 | 0.00 | 0.00 | 66 | 1016.5 |
| 20260906061533 | 68 | 27 | 6.0 | 12.0 | 0.00 | 0.00 | 0.00 | 67 | 1016.4 |
| 20260906060022 | 68 | 32 | 6.0 | 11.0 | 0.00 | 0.00 | 0.00 | 66 | 1016.2 |
| 20260906054521 | 68 | 26 | 6.0 | 12.0 | 0.00 | 0.00 | 0.00 | 66 | 1016.3 |
| 20260906053021 | 68 | 27 | 6.0 | 11.0 | 0.00 | 0.00 | 0.00 | 66 | 1016.2 |
| 20260906051520 | 68 | 23 | 7.0 | 12.0 | 0.00 | 0.00 | 0.00 | 66 | 1016.2 |
| 20260906050021 | 68 | 27 | 7.0 | 12.0 | 0.00 | 0.00 | 0.00 | 66 | 1016.1 |
| 20260906044516 | 68 | 29 | 7.0 | 13.0 | 0.00 | 0.00 | 0.00 | 67 | 1015.8 |
| 20260906043014 | 68 | 28 | 9.0 | 13.0 | 0.00 | 0.00 | 0.00 | 66 | 1015.6 |
| 20260906041512 | 68 | 25 | 9.0 | 15.0 | 0.00 | 0.00 | 0.00 | 66 | 1015.7 |
| 20260906040008 | 68 | 27 | 8.0 | 14.0 | 0.00 | 0.00 | 0.00 | 66 | 1015.6 |
| 20260906034506 | 68 | 27 | 9.0 | 15.0 | 0.00 | 0.00 | 0.00 | 67 | 1015.5 |
| 20260906033002 | 68 | 23 | 8.0 | 12.0 | 0.00 | 0.00 | 0.00 | 67 | 1015.6 |
| 20260906031503 | 68 | 20 | 8.0 | 13.0 | 0.00 | 0.00 | 0.00 | 67 | 1015.8 |
| 20260906030002 | 68 | 33 | 8.0 | 13.0 | 0.00 | 0.00 | 0.00 | 66 | 1015.7 |
| 20260906024602 | 68 | 23 | 8.0 | 13.0 | 0.00 | 0.00 | 0.00 | 66 | 1015.6 |
| 20260906023057 | 68 | 29 | 8.0 | 12.0 | 0.00 | 0.00 | 0.00 | 65 | 1015.6 |
| 20260906021605 | 67 | 28 | 9.0 | 12.0 | 0.00 | 0.00 | 0.00 | 66 | 1015.7 |
| 20260906020059 | 68 | 15 | 8.0 | 12.0 | 0.00 | 0.00 | 0.00 | 66 | 1015.6 |
| 20260906014558 | 68 | 23 | 7.0 | 11.0 | 0.00 | 0.00 | 0.00 | 64 | 1015.6 |
| 20260906013053 | 68 | 24 | 8.0 | 12.0 | 0.00 | 0.00 | 0.00 | 65 | 1015.7 |
| 20260906011551 | 67 | 30 | 8.0 | 13.0 | 0.00 | 0.00 | 0.00 | 66 | 1015.6 |
| 20260906010056 | 67 | 25 | 8.0 | 12.0 | 0.00 | 0.00 | 0.00 | 65 | 1015.3 |
| 20260906004554 | 67 | 25 | 8.0 | 14.0 | 0.00 | 0.00 | 0.00 | 66 | 1015.1 |
| 20260906003048 | 67 | 24 | 8.0 | 14.0 | 0.00 | 0.00 | 0.00 | 66 | 1015.4 |
| 20260906001553 | 67 | 30 | 8.0 | 14.0 | 0.00 | 0.00 | 0.00 | 65 | 1015.4 |
| 20260906000046 | 67 | 30 | 7.0 | 13.0 | 0.00 | 0.00 | 0.00 | 67 | 1015.4 |
| 20260905234545 | 67 | 21 | 8.0 | 13.0 | 0.00 | 0.00 | 0.00 | 66 | 1015.3 |
| 20260905233045 | 68 | 25 | 8.0 | 15.0 | 0.00 | 0.00 | 0.00 | 67 | 1015.3 |
| 20260905231543 | 68 | 27 | 9.0 | 12.0 | 0.00 | 0.00 | 0.00 | 65 | 1015.3 |
| 20260905230040 | 68 | 29 | 7.0 | 13.0 | 0.00 | 0.00 | 0.00 | 65 | 1015.4 |